Green City, Missouri
Current Conditions -  °F | °C
As of 2:55 AM on Friday 24 Oct 2014 (Local Time) from KIRK Reporting Station
Moderate Fog Moderate Fog  
Wind Chill: 56°   Ceiling: 200
Heat Index: 56°   Visibility: 0.25mi
Dew Point: 56°   Wind: 9mph
Humidity: 100%   Direction: 250°WSW
Pressure: 30.07"   Gusts: NA
Location:  40.27°N, 92.95°W
Report Text: KIRK 240755Z AUTO 25008KT 1/4SM FG VV002 13/13 A3007 RMK AO2 SLP184 T01330133
Loading
Personal Weather Stations






























Interactive Weather Map
Tropical Storm Tracking
New forecast layout! Learn more

10-Day Weather Forecast

Advertisements
Track Severe Weather on mobile